sensor_id;sensor_type;location;lat;lon;timestamp;P1;durP1;ratioP1;P2;durP2;ratioP2
20629;SDS011;17386;43.846;25.950;2024-03-02T00:00:15;21.95;;;5.85;;
20629;SDS011;17386;43.846;25.950;2024-03-02T00:02:44;20.40;;;6.43;;
20629;SDS011;17386;43.846;25.950;2024-03-02T00:05:11;16.88;;;5.88;;
20629;SDS011;17386;43.846;25.950;2024-03-02T00:07:39;17.05;;;6.70;;
20629;SDS011;17386;43.846;25.950;2024-03-02T00:10:07;27.17;;;7.93;;
20629;SDS011;17386;43.846;25.950;2024-03-02T00:12:36;19.27;;;6.65;;
20629;SDS011;17386;43.846;25.950;2024-03-02T00:15:04;21.55;;;6.90;;
20629;SDS011;17386;43.846;25.950;2024-03-02T00:17:31;18.85;;;6.75;;
20629;SDS011;17386;43.846;25.950;2024-03-02T00:19:57;26.52;;;7.63;;
20629;SDS011;17386;43.846;25.950;2024-03-02T00:22:22;19.95;;;6.82;;
20629;SDS011;17386;43.846;25.950;2024-03-02T00:24:48;21.80;;;8.02;;
20629;SDS011;17386;43.846;25.950;2024-03-02T00:27:14;29.13;;;7.60;;
20629;SDS011;17386;43.846;25.950;2024-03-02T00:29:42;20.88;;;6.45;;
20629;SDS011;17386;43.846;25.950;2024-03-02T00:32:12;20.35;;;7.10;;
20629;SDS011;17386;43.846;25.950;2024-03-02T00:34:39;24.45;;;7.97;;
20629;SDS011;17386;43.846;25.950;2024-03-02T00:37:04;20.40;;;7.10;;
20629;SDS011;17386;43.846;25.950;2024-03-02T00:39:30;22.27;;;6.45;;
20629;SDS011;17386;43.846;25.950;2024-03-02T00:41:56;24.55;;;7.85;;
20629;SDS011;17386;43.846;25.950;2024-03-02T00:44:21;15.43;;;7.10;;
20629;SDS011;17386;43.846;25.950;2024-03-02T00:46:50;21.15;;;7.18;;
20629;SDS011;17386;43.846;25.950;2024-03-02T00:49:22;22.85;;;7.10;;
20629;SDS011;17386;43.846;25.950;2024-03-02T00:51:49;25.40;;;7.80;;
20629;SDS011;17386;43.846;25.950;2024-03-02T00:54:19;26.80;;;7.43;;
20629;SDS011;17386;43.846;25.950;2024-03-02T00:56:46;21.30;;;6.70;;
20629;SDS011;17386;43.846;25.950;2024-03-02T00:59:12;26.38;;;7.15;;
20629;SDS011;17386;43.846;25.950;2024-03-02T01:01:38;21.38;;;7.05;;
20629;SDS011;17386;43.846;25.950;2024-03-02T01:04:03;17.75;;;6.80;;
20629;SDS011;17386;43.846;25.950;2024-03-02T01:06:29;21.92;;;7.65;;
20629;SDS011;17386;43.846;25.950;2024-03-02T01:08:55;23.92;;;6.82;;
20629;SDS011;17386;43.846;25.950;2024-03-02T01:11:20;19.98;;;7.97;;
20629;SDS011;17386;43.846;25.950;2024-03-02T01:13:49;20.48;;;7.47;;
20629;SDS011;17386;43.846;25.950;2024-03-02T01:16:14;24.95;;;7.88;;
20629;SDS011;17386;43.846;25.950;2024-03-02T01:18:41;25.27;;;8.48;;
20629;SDS011;17386;43.846;25.950;2024-03-02T01:21:06;23.58;;;8.57;;
20629;SDS011;17386;43.846;25.950;2024-03-02T01:23:32;39.60;;;11.43;;
20629;SDS011;17386;43.846;25.950;2024-03-02T01:25:58;27.70;;;8.88;;
20629;SDS011;17386;43.846;25.950;2024-03-02T01:28:23;27.25;;;10.23;;
20629;SDS011;17386;43.846;25.950;2024-03-02T01:30:48;23.92;;;8.95;;
20629;SDS011;17386;43.846;25.950;2024-03-02T01:33:14;23.52;;;8.10;;
20629;SDS011;17386;43.846;25.950;2024-03-02T01:35:40;22.90;;;7.82;;
20629;SDS011;17386;43.846;25.950;2024-03-02T01:38:06;23.10;;;8.80;;
20629;SDS011;17386;43.846;25.950;2024-03-02T01:40:32;22.10;;;8.40;;
20629;SDS011;17386;43.846;25.950;2024-03-02T01:43:01;21.88;;;8.40;;
20629;SDS011;17386;43.846;25.950;2024-03-02T01:45:27;32.88;;;10.73;;
20629;SDS011;17386;43.846;25.950;2024-03-02T01:47:53;31.70;;;10.48;;
20629;SDS011;17386;43.846;25.950;2024-03-02T01:50:28;24.65;;;10.00;;
20629;SDS011;17386;43.846;25.950;2024-03-02T01:52:56;22.52;;;9.43;;
20629;SDS011;17386;43.846;25.950;2024-03-02T01:55:21;27.27;;;9.95;;
20629;SDS011;17386;43.846;25.950;2024-03-02T01:57:47;20.88;;;9.55;;
20629;SDS011;17386;43.846;25.950;2024-03-02T02:00:17;24.02;;;10.10;;
20629;SDS011;17386;43.846;25.950;2024-03-02T02:02:43;23.60;;;9.07;;
20629;SDS011;17386;43.846;25.950;2024-03-02T02:05:09;25.55;;;9.90;;
20629;SDS011;17386;43.846;25.950;2024-03-02T02:07:35;23.33;;;9.80;;
20629;SDS011;17386;43.846;25.950;2024-03-02T02:10:00;20.95;;;9.45;;
20629;SDS011;17386;43.846;25.950;2024-03-02T02:12:26;25.40;;;10.13;;
20629;SDS011;17386;43.846;25.950;2024-03-02T02:14:51;26.52;;;9.70;;
20629;SDS011;17386;43.846;25.950;2024-03-02T02:17:17;29.88;;;10.60;;
20629;SDS011;17386;43.846;25.950;2024-03-02T02:19:43;25.08;;;10.38;;
20629;SDS011;17386;43.846;25.950;2024-03-02T02:22:09;26.50;;;11.27;;
20629;SDS011;17386;43.846;25.950;2024-03-02T02:24:35;21.10;;;10.35;;
20629;SDS011;17386;43.846;25.950;2024-03-02T02:27:00;31.83;;;11.95;;
20629;SDS011;17386;43.846;25.950;2024-03-02T02:29:26;31.55;;;13.02;;
20629;SDS011;17386;43.846;25.950;2024-03-02T02:31:52;31.25;;;13.02;;
20629;SDS011;17386;43.846;25.950;2024-03-02T02:34:17;27.67;;;11.48;;
20629;SDS011;17386;43.846;25.950;2024-03-02T02:36:43;31.92;;;13.65;;
20629;SDS011;17386;43.846;25.950;2024-03-02T02:39:10;28.70;;;11.98;;
20629;SDS011;17386;43.846;25.950;2024-03-02T02:41:38;26.70;;;10.90;;
20629;SDS011;17386;43.846;25.950;2024-03-02T02:44:04;27.00;;;12.32;;
20629;SDS011;17386;43.846;25.950;2024-03-02T02:46:30;28.33;;;9.93;;
20629;SDS011;17386;43.846;25.950;2024-03-02T02:48:55;26.55;;;9.70;;
20629;SDS011;17386;43.846;25.950;2024-03-02T02:51:20;21.50;;;9.35;;
20629;SDS011;17386;43.846;25.950;2024-03-02T02:53:46;22.38;;;8.70;;
20629;SDS011;17386;43.846;25.950;2024-03-02T02:56:11;30.42;;;10.18;;
20629;SDS011;17386;43.846;25.950;2024-03-02T02:58:37;24.88;;;9.32;;
20629;SDS011;17386;43.846;25.950;2024-03-02T03:01:02;23.90;;;8.77;;
20629;SDS011;17386;43.846;25.950;2024-03-02T03:03:28;21.55;;;9.63;;
20629;SDS011;17386;43.846;25.950;2024-03-02T03:05:54;25.98;;;10.57;;
20629;SDS011;17386;43.846;25.950;2024-03-02T03:08:20;27.73;;;9.90;;
20629;SDS011;17386;43.846;25.950;2024-03-02T03:10:45;24.95;;;9.75;;
20629;SDS011;17386;43.846;25.950;2024-03-02T03:13:10;28.35;;;9.93;;
20629;SDS011;17386;43.846;25.950;2024-03-02T03:15:36;31.00;;;11.52;;
20629;SDS011;17386;43.846;25.950;2024-03-02T03:18:02;26.67;;;10.50;;
20629;SDS011;17386;43.846;25.950;2024-03-02T03:20:32;21.65;;;9.75;;
20629;SDS011;17386;43.846;25.950;2024-03-02T03:22:58;25.02;;;10.63;;
20629;SDS011;17386;43.846;25.950;2024-03-02T03:25:24;25.77;;;11.00;;
20629;SDS011;17386;43.846;25.950;2024-03-02T03:27:49;26.23;;;10.52;;
20629;SDS011;17386;43.846;25.950;2024-03-02T03:30:17;34.45;;;11.32;;
20629;SDS011;17386;43.846;25.950;2024-03-02T03:32:43;21.63;;;8.98;;
20629;SDS011;17386;43.846;25.950;2024-03-02T03:35:08;32.05;;;12.73;;
20629;SDS011;17386;43.846;25.950;2024-03-02T03:37:34;26.23;;;12.18;;
20629;SDS011;17386;43.846;25.950;2024-03-02T03:39:59;31.60;;;14.07;;
20629;SDS011;17386;43.846;25.950;2024-03-02T03:42:26;35.30;;;14.50;;
20629;SDS011;17386;43.846;25.950;2024-03-02T03:44:51;39.85;;;14.65;;
20629;SDS011;17386;43.846;25.950;2024-03-02T03:47:17;36.95;;;13.70;;
20629;SDS011;17386;43.846;25.950;2024-03-02T03:49:42;27.02;;;11.88;;
20629;SDS011;17386;43.846;25.950;2024-03-02T03:52:07;38.65;;;12.55;;
20629;SDS011;17386;43.846;25.950;2024-03-02T03:54:33;31.02;;;12.50;;
20629;SDS011;17386;43.846;25.950;2024-03-02T03:56:58;24.58;;;10.65;;
20629;SDS011;17386;43.846;25.950;2024-03-02T03:59:24;31.88;;;11.25;;
20629;SDS011;17386;43.846;25.950;2024-03-02T04:01:49;25.98;;;10.70;;
20629;SDS011;17386;43.846;25.950;2024-03-02T04:04:14;31.38;;;9.90;;
20629;SDS011;17386;43.846;25.950;2024-03-02T04:06:40;27.63;;;9.85;;
20629;SDS011;17386;43.846;25.950;2024-03-02T04:09:05;21.25;;;9.55;;
20629;SDS011;17386;43.846;25.950;2024-03-02T04:11:31;26.35;;;9.95;;
20629;SDS011;17386;43.846;25.950;2024-03-02T04:13:56;22.83;;;7.85;;
20629;SDS011;17386;43.846;25.950;2024-03-02T04:16:22;20.55;;;8.05;;
20629;SDS011;17386;43.846;25.950;2024-03-02T04:18:47;18.42;;;7.35;;
20629;SDS011;17386;43.846;25.950;2024-03-02T04:21:13;19.85;;;7.85;;
20629;SDS011;17386;43.846;25.950;2024-03-02T04:23:38;18.65;;;7.20;;
20629;SDS011;17386;43.846;25.950;2024-03-02T04:26:04;21.17;;;8.13;;
20629;SDS011;17386;43.846;25.950;2024-03-02T04:28:29;24.38;;;8.88;;
20629;SDS011;17386;43.846;25.950;2024-03-02T04:30:55;20.38;;;7.97;;
20629;SDS011;17386;43.846;25.950;2024-03-02T04:33:20;21.20;;;8.63;;
20629;SDS011;17386;43.846;25.950;2024-03-02T04:35:45;17.58;;;7.72;;
20629;SDS011;17386;43.846;25.950;2024-03-02T04:38:11;17.63;;;7.30;;
20629;SDS011;17386;43.846;25.950;2024-03-02T04:40:37;18.30;;;6.60;;
20629;SDS011;17386;43.846;25.950;2024-03-02T04:43:02;17.13;;;6.72;;
20629;SDS011;17386;43.846;25.950;2024-03-02T04:45:28;18.02;;;6.85;;
20629;SDS011;17386;43.846;25.950;2024-03-02T04:47:54;18.67;;;7.03;;
20629;SDS011;17386;43.846;25.950;2024-03-02T04:50:19;17.92;;;5.85;;
20629;SDS011;17386;43.846;25.950;2024-03-02T04:52:45;24.73;;;6.50;;
20629;SDS011;17386;43.846;25.950;2024-03-02T04:55:10;14.95;;;5.30;;
20629;SDS011;17386;43.846;25.950;2024-03-02T04:57:42;17.75;;;6.10;;
20629;SDS011;17386;43.846;25.950;2024-03-02T05:00:08;18.00;;;5.85;;
20629;SDS011;17386;43.846;25.950;2024-03-02T05:02:34;17.23;;;6.18;;
20629;SDS011;17386;43.846;25.950;2024-03-02T05:05:00;14.90;;;6.13;;
20629;SDS011;17386;43.846;25.950;2024-03-02T05:07:25;16.67;;;6.32;;
20629;SDS011;17386;43.846;25.950;2024-03-02T05:09:51;22.88;;;8.23;;
20629;SDS011;17386;43.846;25.950;2024-03-02T05:12:16;16.92;;;5.80;;
20629;SDS011;17386;43.846;25.950;2024-03-02T05:15:06;13.95;;;5.70;;
20629;SDS011;17386;43.846;25.950;2024-03-02T05:17:32;21.40;;;5.90;;
20629;SDS011;17386;43.846;25.950;2024-03-02T05:19:58;20.95;;;7.38;;
20629;SDS011;17386;43.846;25.950;2024-03-02T05:22:23;14.80;;;5.50;;
20629;SDS011;17386;43.846;25.950;2024-03-02T05:24:49;21.42;;;6.20;;
20629;SDS011;17386;43.846;25.950;2024-03-02T05:27:14;17.33;;;5.45;;
20629;SDS011;17386;43.846;25.950;2024-03-02T05:29:40;18.50;;;5.82;;
20629;SDS011;17386;43.846;25.950;2024-03-02T05:32:05;18.63;;;7.95;;
20629;SDS011;17386;43.846;25.950;2024-03-02T05:34:31;13.05;;;5.65;;
20629;SDS011;17386;43.846;25.950;2024-03-02T05:36:57;16.77;;;5.97;;
20629;SDS011;17386;43.846;25.950;2024-03-02T05:39:23;17.67;;;6.50;;
20629;SDS011;17386;43.846;25.950;2024-03-02T05:41:49;15.70;;;6.10;;
20629;SDS011;17386;43.846;25.950;2024-03-02T05:44:14;22.25;;;6.40;;
20629;SDS011;17386;43.846;25.950;2024-03-02T05:46:40;20.60;;;6.38;;
20629;SDS011;17386;43.846;25.950;2024-03-02T05:49:06;20.52;;;8.70;;
20629;SDS011;17386;43.846;25.950;2024-03-02T05:51:33;28.58;;;8.45;;
20629;SDS011;17386;43.846;25.950;2024-03-02T05:53:58;24.00;;;9.50;;
20629;SDS011;17386;43.846;25.950;2024-03-02T05:56:24;26.60;;;10.15;;
20629;SDS011;17386;43.846;25.950;2024-03-02T05:58:49;43.78;;;11.38;;
20629;SDS011;17386;43.846;25.950;2024-03-02T06:01:33;31.27;;;11.20;;
20629;SDS011;17386;43.846;25.950;2024-03-02T06:03:58;30.10;;;12.00;;
20629;SDS011;17386;43.846;25.950;2024-03-02T06:06:24;33.63;;;11.85;;
20629;SDS011;17386;43.846;25.950;2024-03-02T06:08:50;32.50;;;11.98;;
20629;SDS011;17386;43.846;25.950;2024-03-02T06:11:16;27.40;;;10.85;;
20629;SDS011;17386;43.846;25.950;2024-03-02T06:13:41;35.75;;;10.63;;
20629;SDS011;17386;43.846;25.950;2024-03-02T06:16:07;26.98;;;10.55;;
20629;SDS011;17386;43.846;25.950;2024-03-02T06:18:33;27.75;;;11.00;;
20629;SDS011;17386;43.846;25.950;2024-03-02T06:20:59;30.27;;;10.20;;
20629;SDS011;17386;43.846;25.950;2024-03-02T06:23:26;30.80;;;13.75;;
20629;SDS011;17386;43.846;25.950;2024-03-02T06:25:51;30.35;;;13.88;;
20629;SDS011;17386;43.846;25.950;2024-03-02T06:28:16;26.75;;;10.38;;
20629;SDS011;17386;43.846;25.950;2024-03-02T06:30:42;21.98;;;10.75;;
20629;SDS011;17386;43.846;25.950;2024-03-02T06:33:08;29.63;;;12.38;;
20629;SDS011;17386;43.846;25.950;2024-03-02T06:35:34;26.88;;;11.55;;
20629;SDS011;17386;43.846;25.950;2024-03-02T06:38:00;28.75;;;10.85;;
20629;SDS011;17386;43.846;25.950;2024-03-02T06:40:25;27.13;;;11.95;;
20629;SDS011;17386;43.846;25.950;2024-03-02T06:42:51;26.00;;;11.23;;
20629;SDS011;17386;43.846;25.950;2024-03-02T06:45:16;21.85;;;8.65;;
20629;SDS011;17386;43.846;25.950;2024-03-02T06:47:41;24.15;;;9.25;;
20629;SDS011;17386;43.846;25.950;2024-03-02T06:50:07;22.98;;;9.07;;
20629;SDS011;17386;43.846;25.950;2024-03-02T06:52:34;23.75;;;9.10;;
20629;SDS011;17386;43.846;25.950;2024-03-02T06:55:00;23.52;;;10.80;;
20629;SDS011;17386;43.846;25.950;2024-03-02T06:57:25;26.42;;;10.70;;
20629;SDS011;17386;43.846;25.950;2024-03-02T06:59:50;23.35;;;9.63;;
20629;SDS011;17386;43.846;25.950;2024-03-02T07:02:19;26.83;;;11.23;;
20629;SDS011;17386;43.846;25.950;2024-03-02T07:04:44;20.05;;;8.77;;
20629;SDS011;17386;43.846;25.950;2024-03-02T07:07:10;21.40;;;9.02;;
20629;SDS011;17386;43.846;25.950;2024-03-02T07:09:36;19.23;;;9.00;;
20629;SDS011;17386;43.846;25.950;2024-03-02T07:12:01;23.60;;;9.73;;
20629;SDS011;17386;43.846;25.950;2024-03-02T07:14:27;23.15;;;9.88;;
20629;SDS011;17386;43.846;25.950;2024-03-02T07:17:12;20.38;;;9.57;;
20629;SDS011;17386;43.846;25.950;2024-03-02T07:19:38;22.60;;;8.32;;
20629;SDS011;17386;43.846;25.950;2024-03-02T07:22:07;24.33;;;10.23;;
20629;SDS011;17386;43.846;25.950;2024-03-02T07:24:42;24.90;;;9.77;;
20629;SDS011;17386;43.846;25.950;2024-03-02T07:27:11;25.63;;;9.75;;
20629;SDS011;17386;43.846;25.950;2024-03-02T07:29:37;20.90;;;9.05;;
20629;SDS011;17386;43.846;25.950;2024-03-02T07:32:04;22.15;;;8.48;;
20629;SDS011;17386;43.846;25.950;2024-03-02T07:34:30;26.17;;;10.18;;
20629;SDS011;17386;43.846;25.950;2024-03-02T07:36:55;27.95;;;9.57;;
20629;SDS011;17386;43.846;25.950;2024-03-02T07:39:21;29.02;;;11.00;;
20629;SDS011;17386;43.846;25.950;2024-03-02T07:41:47;26.33;;;10.57;;
20629;SDS011;17386;43.846;25.950;2024-03-02T07:44:13;29.80;;;9.25;;
20629;SDS011;17386;43.846;25.950;2024-03-02T07:46:42;24.45;;;8.13;;
20629;SDS011;17386;43.846;25.950;2024-03-02T07:49:08;20.48;;;8.77;;
20629;SDS011;17386;43.846;25.950;2024-03-02T07:51:33;20.85;;;8.13;;
20629;SDS011;17386;43.846;25.950;2024-03-02T07:53:59;16.92;;;7.40;;
20629;SDS011;17386;43.846;25.950;2024-03-02T07:56:24;25.33;;;8.55;;
20629;SDS011;17386;43.846;25.950;2024-03-02T07:58:50;17.73;;;8.25;;
20629;SDS011;17386;43.846;25.950;2024-03-02T08:01:16;23.95;;;8.20;;
20629;SDS011;17386;43.846;25.950;2024-03-02T08:03:42;22.98;;;9.45;;
20629;SDS011;17386;43.846;25.950;2024-03-02T08:06:13;30.95;;;8.80;;
20629;SDS011;17386;43.846;25.950;2024-03-02T08:08:41;20.10;;;8.93;;
20629;SDS011;17386;43.846;25.950;2024-03-02T08:11:06;25.40;;;9.50;;
20629;SDS011;17386;43.846;25.950;2024-03-02T08:13:32;18.88;;;8.48;;
20629;SDS011;17386;43.846;25.950;2024-03-02T08:15:58;20.38;;;9.90;;
20629;SDS011;17386;43.846;25.950;2024-03-02T08:18:24;19.75;;;9.32;;
20629;SDS011;17386;43.846;25.950;2024-03-02T08:20:49;26.08;;;10.00;;
20629;SDS011;17386;43.846;25.950;2024-03-02T08:23:15;22.75;;;8.90;;
20629;SDS011;17386;43.846;25.950;2024-03-02T08:25:40;35.33;;;10.38;;
20629;SDS011;17386;43.846;25.950;2024-03-02T08:28:07;25.85;;;8.35;;
20629;SDS011;17386;43.846;25.950;2024-03-02T08:30:32;18.90;;;8.48;;
20629;SDS011;17386;43.846;25.950;2024-03-02T08:32:58;28.73;;;9.98;;
20629;SDS011;17386;43.846;25.950;2024-03-02T08:35:23;27.25;;;9.20;;
20629;SDS011;17386;43.846;25.950;2024-03-02T08:37:48;24.77;;;9.15;;
20629;SDS011;17386;43.846;25.950;2024-03-02T08:40:14;29.00;;;9.05;;
20629;SDS011;17386;43.846;25.950;2024-03-02T08:42:40;25.58;;;9.30;;
20629;SDS011;17386;43.846;25.950;2024-03-02T08:45:06;25.25;;;9.80;;
20629;SDS011;17386;43.846;25.950;2024-03-02T08:47:32;21.67;;;8.77;;
20629;SDS011;17386;43.846;25.950;2024-03-02T08:49:58;21.30;;;9.15;;
20629;SDS011;17386;43.846;25.950;2024-03-02T08:52:25;22.30;;;8.82;;
20629;SDS011;17386;43.846;25.950;2024-03-02T08:54:50;21.20;;;8.35;;
20629;SDS011;17386;43.846;25.950;2024-03-02T08:57:15;18.33;;;8.88;;
20629;SDS011;17386;43.846;25.950;2024-03-02T08:59:41;26.40;;;9.52;;
20629;SDS011;17386;43.846;25.950;2024-03-02T09:02:06;22.88;;;8.85;;
20629;SDS011;17386;43.846;25.950;2024-03-02T09:04:32;23.33;;;9.93;;
20629;SDS011;17386;43.846;25.950;2024-03-02T09:06:58;18.13;;;8.95;;
20629;SDS011;17386;43.846;25.950;2024-03-02T09:09:23;21.17;;;8.25;;
20629;SDS011;17386;43.846;25.950;2024-03-02T09:11:48;22.17;;;8.32;;
20629;SDS011;17386;43.846;25.950;2024-03-02T09:14:14;15.93;;;7.50;;
20629;SDS011;17386;43.846;25.950;2024-03-02T09:16:40;22.52;;;8.35;;
20629;SDS011;17386;43.846;25.950;2024-03-02T09:19:05;20.92;;;8.85;;
20629;SDS011;17386;43.846;25.950;2024-03-02T09:21:30;18.42;;;9.10;;
20629;SDS011;17386;43.846;25.950;2024-03-02T09:23:56;21.20;;;8.30;;
20629;SDS011;17386;43.846;25.950;2024-03-02T09:26:24;23.40;;;8.35;;
20629;SDS011;17386;43.846;25.950;2024-03-02T09:28:50;19.75;;;8.00;;
20629;SDS011;17386;43.846;25.950;2024-03-02T09:31:16;18.63;;;8.32;;
20629;SDS011;17386;43.846;25.950;2024-03-02T09:33:41;17.33;;;7.47;;
20629;SDS011;17386;43.846;25.950;2024-03-02T09:36:16;19.45;;;8.40;;
20629;SDS011;17386;43.846;25.950;2024-03-02T09:38:45;27.80;;;8.45;;
20629;SDS011;17386;43.846;25.950;2024-03-02T09:41:11;19.17;;;7.50;;
20629;SDS011;17386;43.846;25.950;2024-03-02T09:43:40;22.08;;;7.32;;
20629;SDS011;17386;43.846;25.950;2024-03-02T09:46:06;24.40;;;8.05;;
20629;SDS011;17386;43.846;25.950;2024-03-02T09:48:33;30.00;;;9.10;;
20629;SDS011;17386;43.846;25.950;2024-03-02T09:51:00;22.95;;;8.18;;
20629;SDS011;17386;43.846;25.950;2024-03-02T09:53:28;17.42;;;8.05;;
20629;SDS011;17386;43.846;25.950;2024-03-02T09:55:56;24.35;;;9.07;;
20629;SDS011;17386;43.846;25.950;2024-03-02T09:58:22;23.35;;;8.95;;
20629;SDS011;17386;43.846;25.950;2024-03-02T10:00:47;20.90;;;9.32;;
20629;SDS011;17386;43.846;25.950;2024-03-02T10:03:14;24.08;;;9.40;;
20629;SDS011;17386;43.846;25.950;2024-03-02T10:05:39;27.77;;;9.02;;
20629;SDS011;17386;43.846;25.950;2024-03-02T10:08:05;18.23;;;7.45;;
20629;SDS011;17386;43.846;25.950;2024-03-02T10:10:35;21.60;;;9.25;;
20629;SDS011;17386;43.846;25.950;2024-03-02T10:13:05;24.52;;;9.57;;
20629;SDS011;17386;43.846;25.950;2024-03-02T10:15:31;21.08;;;8.23;;
20629;SDS011;17386;43.846;25.950;2024-03-02T10:17:57;21.13;;;8.85;;
20629;SDS011;17386;43.846;25.950;2024-03-02T10:20:23;23.20;;;9.13;;
20629;SDS011;17386;43.846;25.950;2024-03-02T10:22:54;24.58;;;10.90;;
20629;SDS011;17386;43.846;25.950;2024-03-02T10:27:57;20.80;;;9.20;;
20629;SDS011;17386;43.846;25.950;2024-03-02T10:30:28;19.90;;;9.18;;
20629;SDS011;17386;43.846;25.950;2024-03-02T10:32:54;19.85;;;9.38;;
20629;SDS011;17386;43.846;25.950;2024-03-02T10:35:21;20.73;;;10.13;;
20629;SDS011;17386;43.846;25.950;2024-03-02T10:37:48;19.52;;;8.65;;
20629;SDS011;17386;43.846;25.950;2024-03-02T10:40:14;20.60;;;8.82;;
20629;SDS011;17386;43.846;25.950;2024-03-02T10:42:41;17.73;;;8.18;;
20629;SDS011;17386;43.846;25.950;2024-03-02T10:45:07;18.55;;;8.63;;
20629;SDS011;17386;43.846;25.950;2024-03-02T10:47:35;18.25;;;9.18;;
20629;SDS011;17386;43.846;25.950;2024-03-02T10:50:03;19.48;;;9.73;;
20629;SDS011;17386;43.846;25.950;2024-03-02T10:52:33;18.58;;;8.68;;
20629;SDS011;17386;43.846;25.950;2024-03-02T10:55:05;21.25;;;9.48;;
20629;SDS011;17386;43.846;25.950;2024-03-02T10:57:42;23.15;;;8.60;;
20629;SDS011;17386;43.846;25.950;2024-03-02T11:00:15;23.50;;;10.80;;
20629;SDS011;17386;43.846;25.950;2024-03-02T11:02:50;23.08;;;9.32;;
20629;SDS011;17386;43.846;25.950;2024-03-02T11:05:18;19.23;;;8.75;;
20629;SDS011;17386;43.846;25.950;2024-03-02T11:08:02;17.45;;;8.07;;
20629;SDS011;17386;43.846;25.950;2024-03-02T11:10:43;19.45;;;8.77;;
20629;SDS011;17386;43.846;25.950;2024-03-02T11:13:16;22.02;;;8.00;;
20629;SDS011;17386;43.846;25.950;2024-03-02T11:15:48;29.75;;;19.00;;
20629;SDS011;17386;43.846;25.950;2024-03-02T11:18:15;17.95;;;9.02;;
20629;SDS011;17386;43.846;25.950;2024-03-02T11:20:40;22.40;;;8.90;;
20629;SDS011;17386;43.846;25.950;2024-03-02T11:23:08;20.33;;;9.80;;
20629;SDS011;17386;43.846;25.950;2024-03-02T11:25:34;20.27;;;9.40;;
20629;SDS011;17386;43.846;25.950;2024-03-02T11:28:01;19.77;;;8.63;;
20629;SDS011;17386;43.846;25.950;2024-03-02T11:32:56;23.23;;;9.00;;
20629;SDS011;17386;43.846;25.950;2024-03-02T11:35:23;23.40;;;10.00;;
20629;SDS011;17386;43.846;25.950;2024-03-02T11:37:50;19.23;;;9.25;;
20629;SDS011;17386;43.846;25.950;2024-03-02T11:40:21;20.52;;;8.65;;
20629;SDS011;17386;43.846;25.950;2024-03-02T11:42:47;15.55;;;7.75;;
20629;SDS011;17386;43.846;25.950;2024-03-02T11:45:16;16.88;;;8.85;;
20629;SDS011;17386;43.846;25.950;2024-03-02T11:47:46;24.42;;;10.32;;
20629;SDS011;17386;43.846;25.950;2024-03-02T11:50:15;18.67;;;10.00;;
20629;SDS011;17386;43.846;25.950;2024-03-02T11:52:53;17.50;;;8.68;;
20629;SDS011;17386;43.846;25.950;2024-03-02T11:55:18;20.60;;;8.75;;
20629;SDS011;17386;43.846;25.950;2024-03-02T11:57:45;27.25;;;10.23;;
20629;SDS011;17386;43.846;25.950;2024-03-02T12:00:17;24.50;;;10.75;;
20629;SDS011;17386;43.846;25.950;2024-03-02T12:02:44;24.35;;;9.63;;
20629;SDS011;17386;43.846;25.950;2024-03-02T12:05:14;27.98;;;10.43;;
20629;SDS011;17386;43.846;25.950;2024-03-02T12:07:41;18.98;;;9.05;;
20629;SDS011;17386;43.846;25.950;2024-03-02T12:10:08;18.85;;;8.98;;
20629;SDS011;17386;43.846;25.950;2024-03-02T12:12:34;21.27;;;9.48;;
20629;SDS011;17386;43.846;25.950;2024-03-02T12:14:59;19.38;;;8.20;;
20629;SDS011;17386;43.846;25.950;2024-03-02T12:17:25;29.83;;;11.73;;
20629;SDS011;17386;43.846;25.950;2024-03-02T12:19:51;28.13;;;10.85;;
20629;SDS011;17386;43.846;25.950;2024-03-02T12:22:17;22.25;;;9.25;;
20629;SDS011;17386;43.846;25.950;2024-03-02T12:24:43;17.77;;;8.95;;
20629;SDS011;17386;43.846;25.950;2024-03-02T12:27:12;20.75;;;10.75;;
20629;SDS011;17386;43.846;25.950;2024-03-02T12:32:05;20.70;;;8.68;;
20629;SDS011;17386;43.846;25.950;2024-03-02T12:34:31;19.13;;;8.90;;
20629;SDS011;17386;43.846;25.950;2024-03-02T12:36:58;17.15;;;8.15;;
20629;SDS011;17386;43.846;25.950;2024-03-02T12:39:23;18.52;;;9.02;;
20629;SDS011;17386;43.846;25.950;2024-03-02T12:41:49;19.30;;;8.80;;
20629;SDS011;17386;43.846;25.950;2024-03-02T12:44:16;20.08;;;9.18;;
20629;SDS011;17386;43.846;25.950;2024-03-02T12:46:45;16.77;;;9.00;;
20629;SDS011;17386;43.846;25.950;2024-03-02T12:49:12;17.88;;;8.20;;
20629;SDS011;17386;43.846;25.950;2024-03-02T12:51:39;17.83;;;8.73;;
20629;SDS011;17386;43.846;25.950;2024-03-02T12:54:09;22.58;;;9.05;;
20629;SDS011;17386;43.846;25.950;2024-03-02T12:56:40;16.00;;;7.40;;
20629;SDS011;17386;43.846;25.950;2024-03-02T12:59:10;20.50;;;8.93;;
20629;SDS011;17386;43.846;25.950;2024-03-02T13:01:55;16.58;;;8.15;;
20629;SDS011;17386;43.846;25.950;2024-03-02T13:06:51;21.02;;;9.15;;
20629;SDS011;17386;43.846;25.950;2024-03-02T13:09:17;18.20;;;7.55;;
20629;SDS011;17386;43.846;25.950;2024-03-02T13:11:42;16.55;;;7.55;;
20629;SDS011;17386;43.846;25.950;2024-03-02T13:14:10;15.32;;;7.65;;
20629;SDS011;17386;43.846;25.950;2024-03-02T13:16:41;17.05;;;7.90;;
20629;SDS011;17386;43.846;25.950;2024-03-02T13:19:08;18.20;;;8.30;;
20629;SDS011;17386;43.846;25.950;2024-03-02T13:21:34;15.07;;;7.22;;
20629;SDS011;17386;43.846;25.950;2024-03-02T13:23:59;20.30;;;8.27;;
20629;SDS011;17386;43.846;25.950;2024-03-02T13:26:26;13.20;;;6.55;;
20629;SDS011;17386;43.846;25.950;2024-03-02T13:28:51;16.38;;;7.80;;
20629;SDS011;17386;43.846;25.950;2024-03-02T13:31:17;18.50;;;7.90;;
20629;SDS011;17386;43.846;25.950;2024-03-02T13:33:42;16.55;;;7.32;;
20629;SDS011;17386;43.846;25.950;2024-03-02T13:38:35;17.33;;;7.40;;
20629;SDS011;17386;43.846;25.950;2024-03-02T13:41:01;19.75;;;7.72;;
20629;SDS011;17386;43.846;25.950;2024-03-02T13:43:26;19.77;;;8.40;;
20629;SDS011;17386;43.846;25.950;2024-03-02T13:45:52;17.98;;;7.65;;
20629;SDS011;17386;43.846;25.950;2024-03-02T13:48:18;21.08;;;8.13;;
20629;SDS011;17386;43.846;25.950;2024-03-02T13:50:44;23.38;;;9.05;;
20629;SDS011;17386;43.846;25.950;2024-03-02T13:53:10;19.48;;;8.50;;
20629;SDS011;17386;43.846;25.950;2024-03-02T13:55:37;15.43;;;7.28;;
20629;SDS011;17386;43.846;25.950;2024-03-02T13:58:03;16.90;;;7.90;;
20629;SDS011;17386;43.846;25.950;2024-03-02T14:00:29;17.52;;;7.63;;
20629;SDS011;17386;43.846;25.950;2024-03-02T14:02:54;20.98;;;7.95;;
20629;SDS011;17386;43.846;25.950;2024-03-02T14:05:20;14.07;;;7.35;;
20629;SDS011;17386;43.846;25.950;2024-03-02T14:07:46;16.70;;;7.88;;
20629;SDS011;17386;43.846;25.950;2024-03-02T14:10:11;17.27;;;7.40;;
20629;SDS011;17386;43.846;25.950;2024-03-02T14:12:37;16.95;;;7.05;;
20629;SDS011;17386;43.846;25.950;2024-03-02T14:15:03;21.27;;;8.63;;
20629;SDS011;17386;43.846;25.950;2024-03-02T14:17:28;20.30;;;8.02;;
20629;SDS011;17386;43.846;25.950;2024-03-02T14:19:56;15.43;;;7.05;;
20629;SDS011;17386;43.846;25.950;2024-03-02T14:22:23;16.85;;;7.60;;
20629;SDS011;17386;43.846;25.950;2024-03-02T14:24:49;15.50;;;7.20;;
20629;SDS011;17386;43.846;25.950;2024-03-02T14:27:14;19.10;;;7.28;;